sensor_id;sensor_type;location;lat;lon;timestamp;temperature;humidity
52167;DHT22;38149;52.666;6.428;2022-08-19T00:35:46;19.70;99.90
52167;DHT22;38149;52.666;6.428;2022-08-19T00:38:12;19.70;99.90
52167;DHT22;38149;52.666;6.428;2022-08-19T00:40:38;19.70;99.90
52167;DHT22;38149;52.666;6.428;2022-08-19T00:43:10;19.70;99.90
52167;DHT22;38149;52.666;6.428;2022-08-19T00:45:38;19.60;99.90
52167;DHT22;38149;52.666;6.428;2022-08-19T00:48:07;19.60;99.90
52167;DHT22;38149;52.666;6.428;2022-08-19T00:50:34;19.60;99.90
52167;DHT22;38149;52.666;6.428;2022-08-19T00:53:01;19.60;99.90
52167;DHT22;38149;52.666;6.428;2022-08-19T00:55:31;19.50;99.90
52167;DHT22;38149;52.666;6.428;2022-08-19T01:03:04;19.50;99.90
52167;DHT22;38149;52.666;6.428;2022-08-19T01:05:32;19.40;99.90
52167;DHT22;38149;52.666;6.428;2022-08-19T01:08:00;19.40;99.90
52167;DHT22;38149;52.666;6.428;2022-08-19T05:33:55;17.30;99.90
52167;DHT22;38149;52.666;6.428;2022-08-19T05:36:24;17.20;99.90
52167;DHT22;38149;52.666;6.428;2022-08-19T05:38:51;17.30;99.90
52167;DHT22;38149;52.666;6.428;2022-08-19T05:41:19;17.30;99.90
52167;DHT22;38149;52.666;6.428;2022-08-19T05:43:46;17.30;99.90
52167;DHT22;38149;52.666;6.428;2022-08-19T05:46:19;17.40;99.90
52167;DHT22;38149;52.666;6.428;2022-08-19T05:48:45;17.40;99.90
52167;DHT22;38149;52.666;6.428;2022-08-19T05:51:11;17.40;99.90
52167;DHT22;38149;52.666;6.428;2022-08-19T05:53:38;17.40;99.90
52167;DHT22;38149;52.666;6.428;2022-08-19T05:56:10;17.50;99.90
52167;DHT22;38149;52.666;6.428;2022-08-19T06:08:35;17.90;99.90
52167;DHT22;38149;52.666;6.428;2022-08-19T06:11:20;17.90;99.90
52167;DHT22;38149;52.666;6.428;2022-08-19T09:46:41;23.60;99.90
52167;DHT22;38149;52.666;6.428;2022-08-19T09:49:07;23.60;99.90
52167;DHT22;38149;52.666;6.428;2022-08-19T09:51:33;23.20;99.90
52167;DHT22;38149;52.666;6.428;2022-08-19T09:54:03;23.60;99.90
52167;DHT22;38149;52.666;6.428;2022-08-19T09:56:30;23.50;99.90
52167;DHT22;38149;52.666;6.428;2022-08-19T09:59:02;23.50;99.90
52167;DHT22;38149;52.666;6.428;2022-08-19T10:01:30;23.80;99.90
52167;DHT22;38149;52.666;6.428;2022-08-19T10:03:58;23.60;99.90
52167;DHT22;38149;52.666;6.428;2022-08-19T10:06:29;23.70;99.90
52167;DHT22;38149;52.666;6.428;2022-08-19T10:08:59;24.20;99.90
52167;DHT22;38149;52.666;6.428;2022-08-19T10:11:25;23.90;99.90
52167;DHT22;38149;52.666;6.428;2022-08-19T10:13:52;24.20;99.90
52167;DHT22;38149;52.666;6.428;2022-08-19T10:16:22;24.00;99.90
52167;DHT22;38149;52.666;6.428;2022-08-19T10:21:18;23.80;99.90
52167;DHT22;38149;52.666;6.428;2022-08-19T10:23:52;23.90;99.90
52167;DHT22;38149;52.666;6.428;2022-08-19T10:28:49;24.00;99.90
52167;DHT22;38149;52.666;6.428;2022-08-19T12:30:29;26.00;99.10
52167;DHT22;38149;52.666;6.428;2022-08-19T12:32:55;26.00;99.20
52167;DHT22;38149;52.666;6.428;2022-08-19T12:35:21;26.00;99.10
52167;DHT22;38149;52.666;6.428;2022-08-19T12:37:47;25.90;99.20
52167;DHT22;38149;52.666;6.428;2022-08-19T12:40:15;25.90;99.00
52167;DHT22;38149;52.666;6.428;2022-08-19T12:42:42;25.90;99.00
52167;DHT22;38149;52.666;6.428;2022-08-19T12:45:13;25.90;98.80
52167;DHT22;38149;52.666;6.428;2022-08-19T12:47:39;26.10;98.30
52167;DHT22;38149;52.666;6.428;2022-08-19T12:50:06;26.10;99.40
52167;DHT22;38149;52.666;6.428;2022-08-19T12:52:35;26.20;99.50
52167;DHT22;38149;52.666;6.428;2022-08-19T12:55:09;26.20;99.80
52167;DHT22;38149;52.666;6.428;2022-08-19T12:57:36;26.20;99.10
52167;DHT22;38149;52.666;6.428;2022-08-19T13:00:13;26.30;99.90
52167;DHT22;38149;52.666;6.428;2022-08-19T13:02:45;26.30;99.90
52167;DHT22;38149;52.666;6.428;2022-08-19T13:05:14;26.30;99.90
52167;DHT22;38149;52.666;6.428;2022-08-19T13:07:42;26.20;99.90
52167;DHT22;38149;52.666;6.428;2022-08-19T13:10:13;26.40;98.60
52167;DHT22;38149;52.666;6.428;2022-08-19T13:12:44;26.50;99.30
52167;DHT22;38149;52.666;6.428;2022-08-19T13:15:11;26.50;98.40
52167;DHT22;38149;52.666;6.428;2022-08-19T13:17:38;26.50;98.70
52167;DHT22;38149;52.666;6.428;2022-08-19T13:20:09;26.70;99.90
52167;DHT22;38149;52.666;6.428;2022-08-19T13:22:36;26.60;99.90
52167;DHT22;38149;52.666;6.428;2022-08-19T13:25:06;26.60;99.90
52167;DHT22;38149;52.666;6.428;2022-08-19T13:27:33;26.60;99.20
52167;DHT22;38149;52.666;6.428;2022-08-19T13:30:00;26.60;99.90
52167;DHT22;38149;52.666;6.428;2022-08-19T13:32:44;26.70;99.90
52167;DHT22;38149;52.666;6.428;2022-08-19T13:35:29;26.50;99.90
52167;DHT22;38149;52.666;6.428;2022-08-19T13:37:54;26.70;99.90
52167;DHT22;38149;52.666;6.428;2022-08-19T13:40:22;26.70;99.90
52167;DHT22;38149;52.666;6.428;2022-08-19T13:42:53;26.80;99.90
52167;DHT22;38149;52.666;6.428;2022-08-19T13:45:22;26.80;99.90
52167;DHT22;38149;52.666;6.428;2022-08-19T13:47:51;26.90;99.90
52167;DHT22;38149;52.666;6.428;2022-08-19T13:50:22;27.00;99.90
52167;DHT22;38149;52.666;6.428;2022-08-19T13:52:51;27.00;99.90
52167;DHT22;38149;52.666;6.428;2022-08-19T13:55:18;27.30;99.90
52167;DHT22;38149;52.666;6.428;2022-08-19T13:57:45;27.00;99.90
52167;DHT22;38149;52.666;6.428;2022-08-19T14:00:17;27.00;99.90
52167;DHT22;38149;52.666;6.428;2022-08-19T14:02:45;26.90;99.90
52167;DHT22;38149;52.666;6.428;2022-08-19T14:05:13;26.60;99.90
52167;DHT22;38149;52.666;6.428;2022-08-19T14:07:40;27.00;99.90
52167;DHT22;38149;52.666;6.428;2022-08-19T14:10:09;27.10;99.90
52167;DHT22;38149;52.666;6.428;2022-08-19T14:12:37;27.10;99.90
52167;DHT22;38149;52.666;6.428;2022-08-19T14:15:04;27.20;99.40
52167;DHT22;38149;52.666;6.428;2022-08-19T14:17:31;27.40;99.90
52167;DHT22;38149;52.666;6.428;2022-08-19T14:20:02;27.70;99.90
52167;DHT22;38149;52.666;6.428;2022-08-19T14:22:34;27.60;99.90
52167;DHT22;38149;52.666;6.428;2022-08-19T14:25:04;27.70;99.90
52167;DHT22;38149;52.666;6.428;2022-08-19T14:27:35;27.80;99.90
52167;DHT22;38149;52.666;6.428;2022-08-19T14:30:06;27.90;99.90
52167;DHT22;38149;52.666;6.428;2022-08-19T14:32:34;27.90;99.90
52167;DHT22;38149;52.666;6.428;2022-08-19T14:35:01;27.90;99.90
52167;DHT22;38149;52.666;6.428;2022-08-19T14:37:27;27.80;99.90
52167;DHT22;38149;52.666;6.428;2022-08-19T14:39:56;27.60;99.90
52167;DHT22;38149;52.666;6.428;2022-08-19T14:42:22;27.70;99.90
52167;DHT22;38149;52.666;6.428;2022-08-19T14:44:48;27.70;99.90
52167;DHT22;38149;52.666;6.428;2022-08-19T14:47:14;27.40;99.90
52167;DHT22;38149;52.666;6.428;2022-08-19T14:49:39;27.50;99.90
52167;DHT22;38149;52.666;6.428;2022-08-19T14:52:05;27.40;99.90
52167;DHT22;38149;52.666;6.428;2022-08-19T14:54:32;27.30;99.90
52167;DHT22;38149;52.666;6.428;2022-08-19T14:56:57;27.20;99.90
52167;DHT22;38149;52.666;6.428;2022-08-19T14:59:23;27.10;99.90
52167;DHT22;38149;52.666;6.428;2022-08-19T15:01:49;27.10;99.90
52167;DHT22;38149;52.666;6.428;2022-08-19T15:04:15;27.00;99.90
52167;DHT22;38149;52.666;6.428;2022-08-19T15:06:41;27.00;99.90
52167;DHT22;38149;52.666;6.428;2022-08-19T15:09:08;26.70;99.90
52167;DHT22;38149;52.666;6.428;2022-08-19T15:11:34;26.90;99.90
52167;DHT22;38149;52.666;6.428;2022-08-19T15:14:01;26.40;99.90
52167;DHT22;38149;52.666;6.428;2022-08-19T15:16:27;26.60;99.90
52167;DHT22;38149;52.666;6.428;2022-08-19T15:18:57;26.50;99.90
52167;DHT22;38149;52.666;6.428;2022-08-19T15:21:27;26.30;99.90
52167;DHT22;38149;52.666;6.428;2022-08-19T15:23:58;25.70;99.90
52167;DHT22;38149;52.666;6.428;2022-08-19T15:26:24;26.40;99.90
52167;DHT22;38149;52.666;6.428;2022-08-19T15:28:52;26.40;99.90
52167;DHT22;38149;52.666;6.428;2022-08-19T15:31:20;26.20;99.90
52167;DHT22;38149;52.666;6.428;2022-08-19T15:38:41;26.20;99.90
52167;DHT22;38149;52.666;6.428;2022-08-19T15:44:11;26.20;99.90
52167;DHT22;38149;52.666;6.428;2022-08-19T15:46:41;26.10;99.90
52167;DHT22;38149;52.666;6.428;2022-08-19T15:49:10;25.90;99.90
52167;DHT22;38149;52.666;6.428;2022-08-19T15:51:38;25.90;99.90
52167;DHT22;38149;52.666;6.428;2022-08-19T15:54:08;25.80;99.90
52167;DHT22;38149;52.666;6.428;2022-08-19T15:56:37;25.80;99.90
52167;DHT22;38149;52.666;6.428;2022-08-19T15:59:22;25.80;99.90
52167;DHT22;38149;52.666;6.428;2022-08-19T16:02:07;25.70;99.90
52167;DHT22;38149;52.666;6.428;2022-08-19T16:04:52;25.70;99.90
52167;DHT22;38149;52.666;6.428;2022-08-19T16:07:36;25.70;99.90
52167;DHT22;38149;52.666;6.428;2022-08-19T16:10:03;25.50;99.90
52167;DHT22;38149;52.666;6.428;2022-08-19T16:12:30;25.50;99.90
52167;DHT22;38149;52.666;6.428;2022-08-19T16:14:56;25.40;99.90
52167;DHT22;38149;52.666;6.428;2022-08-19T16:17:23;25.40;99.90
52167;DHT22;38149;52.666;6.428;2022-08-19T16:22:15;25.50;99.90
52167;DHT22;38149;52.666;6.428;2022-08-19T16:24:42;25.40;99.90
52167;DHT22;38149;52.666;6.428;2022-08-19T16:27:08;25.40;99.90
52167;DHT22;38149;52.666;6.428;2022-08-19T16:29:34;25.50;99.90
52167;DHT22;38149;52.666;6.428;2022-08-19T16:32:09;25.40;99.90
52167;DHT22;38149;52.666;6.428;2022-08-19T16:34:37;25.40;99.90
52167;DHT22;38149;52.666;6.428;2022-08-19T16:37:04;25.40;99.90
52167;DHT22;38149;52.666;6.428;2022-08-19T16:39:30;25.40;99.90
52167;DHT22;38149;52.666;6.428;2022-08-19T16:41:56;25.40;99.90
52167;DHT22;38149;52.666;6.428;2022-08-19T16:44:22;25.40;99.90
52167;DHT22;38149;52.666;6.428;2022-08-19T16:46:48;25.30;99.90
52167;DHT22;38149;52.666;6.428;2022-08-19T16:49:15;25.70;99.90
52167;DHT22;38149;52.666;6.428;2022-08-19T16:51:41;25.40;99.90
52167;DHT22;38149;52.666;6.428;2022-08-19T16:54:09;25.30;99.90
52167;DHT22;38149;52.666;6.428;2022-08-19T16:56:35;25.20;99.90
52167;DHT22;38149;52.666;6.428;2022-08-19T16:59:01;25.30;99.90
52167;DHT22;38149;52.666;6.428;2022-08-19T17:01:27;25.30;99.90
52167;DHT22;38149;52.666;6.428;2022-08-19T17:03:54;25.30;99.90
52167;DHT22;38149;52.666;6.428;2022-08-19T17:06:26;25.30;99.90
52167;DHT22;38149;52.666;6.428;2022-08-19T17:08:56;25.40;99.90
52167;DHT22;38149;52.666;6.428;2022-08-19T17:11:24;25.30;99.90
52167;DHT22;38149;52.666;6.428;2022-08-19T17:13:52;25.30;99.90
52167;DHT22;38149;52.666;6.428;2022-08-19T17:16:22;25.40;99.90
52167;DHT22;38149;52.666;6.428;2022-08-19T17:18:54;25.30;99.90
52167;DHT22;38149;52.666;6.428;2022-08-19T17:21:24;25.60;99.90
52167;DHT22;38149;52.666;6.428;2022-08-19T17:23:55;25.30;99.90
52167;DHT22;38149;52.666;6.428;2022-08-19T17:26:21;25.30;99.90
52167;DHT22;38149;52.666;6.428;2022-08-19T17:38:37;25.10;99.90
52167;DHT22;38149;52.666;6.428;2022-08-19T17:41:04;25.20;99.90
52167;DHT22;38149;52.666;6.428;2022-08-19T17:43:34;25.10;99.90
52167;DHT22;38149;52.666;6.428;2022-08-19T17:50:56;25.10;99.90
52167;DHT22;38149;52.666;6.428;2022-08-19T17:53:22;25.10;99.90
52167;DHT22;38149;52.666;6.428;2022-08-19T17:55:48;25.00;99.90
52167;DHT22;38149;52.666;6.428;2022-08-19T17:58:13;25.10;99.90
52167;DHT22;38149;52.666;6.428;2022-08-19T18:03:07;24.80;99.90
52167;DHT22;38149;52.666;6.428;2022-08-19T18:05:40;24.70;99.90
52167;DHT22;38149;52.666;6.428;2022-08-19T18:08:07;25.00;99.90
52167;DHT22;38149;52.666;6.428;2022-08-19T18:10:36;24.90;99.90
52167;DHT22;38149;52.666;6.428;2022-08-19T18:13:02;24.90;99.90
52167;DHT22;38149;52.666;6.428;2022-08-19T18:15:29;24.90;99.90
52167;DHT22;38149;52.666;6.428;2022-08-19T18:17:55;24.70;99.90
52167;DHT22;38149;52.666;6.428;2022-08-19T18:20:21;24.80;99.90
52167;DHT22;38149;52.666;6.428;2022-08-19T18:22:48;24.70;99.90
52167;DHT22;38149;52.666;6.428;2022-08-19T18:25:18;24.60;99.90
52167;DHT22;38149;52.666;6.428;2022-08-19T18:27:50;24.50;99.90
52167;DHT22;38149;52.666;6.428;2022-08-19T18:30:17;24.60;99.90
52167;DHT22;38149;52.666;6.428;2022-08-19T18:32:45;24.40;99.90
52167;DHT22;38149;52.666;6.428;2022-08-19T18:35:23;24.30;99.90
52167;DHT22;38149;52.666;6.428;2022-08-19T18:37:55;24.20;99.90
52167;DHT22;38149;52.666;6.428;2022-08-19T18:40:26;24.10;99.90
52167;DHT22;38149;52.666;6.428;2022-08-19T18:48:40;23.80;99.90
52167;DHT22;38149;52.666;6.428;2022-08-19T18:51:25;23.80;99.90
52167;DHT22;38149;52.666;6.428;2022-08-19T18:53:54;23.80;99.90
52167;DHT22;38149;52.666;6.428;2022-08-19T18:56:23;23.70;99.90
52167;DHT22;38149;52.666;6.428;2022-08-19T18:58:54;23.80;99.90
52167;DHT22;38149;52.666;6.428;2022-08-19T19:01:44;23.70;99.90
52167;DHT22;38149;52.666;6.428;2022-08-19T19:04:13;23.70;99.90
52167;DHT22;38149;52.666;6.428;2022-08-19T19:06:40;23.70;99.90
52167;DHT22;38149;52.666;6.428;2022-08-19T19:09:13;23.70;99.90
52167;DHT22;38149;52.666;6.428;2022-08-19T19:11:44;23.70;99.90
52167;DHT22;38149;52.666;6.428;2022-08-19T19:14:13;23.70;99.90
52167;DHT22;38149;52.666;6.428;2022-08-19T19:16:42;23.60;99.90
52167;DHT22;38149;52.666;6.428;2022-08-19T19:19:11;23.60;99.90
52167;DHT22;38149;52.666;6.428;2022-08-19T19:21:40;23.60;99.90
52167;DHT22;38149;52.666;6.428;2022-08-19T19:24:12;23.60;99.90
52167;DHT22;38149;52.666;6.428;2022-08-19T19:26:40;23.90;99.90
52167;DHT22;38149;52.666;6.428;2022-08-19T19:29:08;23.70;99.90
52167;DHT22;38149;52.666;6.428;2022-08-19T19:31:34;23.80;99.90
52167;DHT22;38149;52.666;6.428;2022-08-19T19:34:00;23.70;99.90
52167;DHT22;38149;52.666;6.428;2022-08-19T19:36:26;24.00;99.90
52167;DHT22;38149;52.666;6.428;2022-08-19T19:38:52;23.60;99.90
52167;DHT22;38149;52.666;6.428;2022-08-19T19:41:21;23.50;99.90
52167;DHT22;38149;52.666;6.428;2022-08-19T19:43:49;23.50;99.90
52167;DHT22;38149;52.666;6.428;2022-08-19T19:46:19;23.50;99.90
52167;DHT22;38149;52.666;6.428;2022-08-19T19:48:45;23.50;99.90
52167;DHT22;38149;52.666;6.428;2022-08-19T19:51:12;23.50;99.90
52167;DHT22;38149;52.666;6.428;2022-08-19T19:53:39;23.50;99.90
52167;DHT22;38149;52.666;6.428;2022-08-19T19:56:05;23.50;99.90
52167;DHT22;38149;52.666;6.428;2022-08-19T19:58:32;23.50;99.90
52167;DHT22;38149;52.666;6.428;2022-08-19T20:01:02;23.40;99.90
52167;DHT22;38149;52.666;6.428;2022-08-19T20:03:30;23.60;99.90
52167;DHT22;38149;52.666;6.428;2022-08-19T20:08:25;23.30;99.90
52167;DHT22;38149;52.666;6.428;2022-08-19T20:11:10;23.40;99.90
52167;DHT22;38149;52.666;6.428;2022-08-19T20:13:40;23.40;99.90
52167;DHT22;38149;52.666;6.428;2022-08-19T20:16:06;23.40;99.90
52167;DHT22;38149;52.666;6.428;2022-08-19T20:18:32;23.50;99.90
52167;DHT22;38149;52.666;6.428;2022-08-19T20:20:58;23.40;99.90
52167;DHT22;38149;52.666;6.428;2022-08-19T20:23:25;23.30;99.90
52167;DHT22;38149;52.666;6.428;2022-08-19T20:25:52;23.20;99.90
52167;DHT22;38149;52.666;6.428;2022-08-19T20:28:18;23.30;99.90
52167;DHT22;38149;52.666;6.428;2022-08-19T20:30:46;23.20;99.90
52167;DHT22;38149;52.666;6.428;2022-08-19T20:33:12;23.20;99.90
52167;DHT22;38149;52.666;6.428;2022-08-19T20:35:39;23.20;99.90
52167;DHT22;38149;52.666;6.428;2022-08-19T20:38:04;23.20;99.90
52167;DHT22;38149;52.666;6.428;2022-08-19T20:40:33;23.20;99.90
52167;DHT22;38149;52.666;6.428;2022-08-19T20:43:00;23.20;99.90
52167;DHT22;38149;52.666;6.428;2022-08-19T20:45:26;23.20;99.90
52167;DHT22;38149;52.666;6.428;2022-08-19T20:47:52;23.20;99.90
52167;DHT22;38149;52.666;6.428;2022-08-19T20:50:18;23.20;99.90
52167;DHT22;38149;52.666;6.428;2022-08-19T20:52:44;23.20;99.90
52167;DHT22;38149;52.666;6.428;2022-08-19T20:55:11;23.20;99.90
52167;DHT22;38149;52.666;6.428;2022-08-19T20:57:37;23.00;99.90
52167;DHT22;38149;52.666;6.428;2022-08-19T21:00:05;23.10;99.90
52167;DHT22;38149;52.666;6.428;2022-08-19T21:02:35;23.00;99.90
52167;DHT22;38149;52.666;6.428;2022-08-19T21:05:00;23.10;99.90
52167;DHT22;38149;52.666;6.428;2022-08-19T21:07:26;23.10;99.90
52167;DHT22;38149;52.666;6.428;2022-08-19T21:09:52;23.00;99.90
52167;DHT22;38149;52.666;6.428;2022-08-19T21:12:18;23.00;99.90
52167;DHT22;38149;52.666;6.428;2022-08-19T21:14:44;23.10;99.90
52167;DHT22;38149;52.666;6.428;2022-08-19T21:17:11;23.00;99.90
52167;DHT22;38149;52.666;6.428;2022-08-19T21:19:37;23.20;99.90
52167;DHT22;38149;52.666;6.428;2022-08-19T21:22:03;23.00;99.90
52167;DHT22;38149;52.666;6.428;2022-08-19T21:24:30;23.20;99.90
52167;DHT22;38149;52.666;6.428;2022-08-19T21:26:55;23.00;99.90
52167;DHT22;38149;52.666;6.428;2022-08-19T21:29:21;23.00;99.90
52167;DHT22;38149;52.666;6.428;2022-08-19T21:31:47;23.00;99.90
52167;DHT22;38149;52.666;6.428;2022-08-19T21:34:14;22.90;99.90
52167;DHT22;38149;52.666;6.428;2022-08-19T21:36:40;23.00;99.90
52167;DHT22;38149;52.666;6.428;2022-08-19T21:39:06;23.00;99.90
52167;DHT22;38149;52.666;6.428;2022-08-19T21:46:26;22.80;99.90
52167;DHT22;38149;52.666;6.428;2022-08-19T21:48:52;22.90;99.90
52167;DHT22;38149;52.666;6.428;2022-08-19T21:53:44;22.80;99.90
52167;DHT22;38149;52.666;6.428;2022-08-19T21:56:10;23.00;99.90
52167;DHT22;38149;52.666;6.428;2022-08-19T21:58:37;22.80;99.90
52167;DHT22;38149;52.666;6.428;2022-08-19T22:01:04;22.70;99.90
52167;DHT22;38149;52.666;6.428;2022-08-19T22:33:08;22.40;99.90
52167;DHT22;38149;52.666;6.428;2022-08-19T22:35:41;22.50;99.90
52167;DHT22;38149;52.666;6.428;2022-08-19T22:38:09;22.40;99.90
52167;DHT22;38149;52.666;6.428;2022-08-19T22:45:35;22.40;99.90
52167;DHT22;38149;52.666;6.428;2022-08-19T22:48:02;22.30;99.90
52167;DHT22;38149;52.666;6.428;2022-08-19T23:05:20;21.70;99.90
52167;DHT22;38149;52.666;6.428;2022-08-19T23:07:46;21.90;99.90
52167;DHT22;38149;52.666;6.428;2022-08-19T23:10:12;22.00;99.90
52167;DHT22;38149;52.666;6.428;2022-08-19T23:15:14;22.00;99.90
52167;DHT22;38149;52.666;6.428;2022-08-19T23:42:47;21.80;99.90
52167;DHT22;38149;52.666;6.428;2022-08-19T23:45:14;21.70;99.90
52167;DHT22;38149;52.666;6.428;2022-08-19T23:47:40;21.50;99.90
52167;DHT22;38149;52.666;6.428;2022-08-19T23:50:07;21.60;99.90
52167;DHT22;38149;52.666;6.428;2022-08-19T23:52:41;21.50;99.90
52167;DHT22;38149;52.666;6.428;2022-08-19T23:55:09;21.50;99.90
52167;DHT22;38149;52.666;6.428;2022-08-19T23:57:36;21.50;99.90
